Time;durP1;ratioP1;P1;durP2;ratioP2;P2;SDS_P1;SDS_P2;PMS_P1;PMS_P2;Temp;Humidity;BMP_temperature;BMP_pressure;BME280_temperature;BME280_humidity;BME280_pressure;Samples;Min_cycle;Max_cycle;Signal;HPM_P1;HPM_P2
2023/05/02 00:01:52;;;;;;;0.10;0.10;;;10.50;99.90;;;;;;6190867;23;20010;-85
2023/05/02 00:04:24;;;;;;;0.15;0.15;;;10.40;99.90;;;;;;6182213;23;20377;-85
2023/05/02 00:06:53;;;;;;;0.10;0.10;;;10.40;99.90;;;;;;6180910;23;20024;-84
2023/05/02 00:09:19;;;;;;;0.17;0.17;;;10.40;99.90;;;;;;6184279;23;20013;-85
2023/05/02 00:11:45;;;;;;;0.20;0.20;;;10.50;99.90;;;;;;6184920;23;20438;-84
2023/05/02 00:14:13;;;;;;;0.20;0.20;;;10.40;99.90;;;;;;6191717;23;20017;-85
2023/05/02 00:16:39;;;;;;;0.10;0.10;;;10.40;99.90;;;;;;6203424;23;20005;-83
2023/05/02 00:19:04;;;;;;;0.20;0.20;;;10.40;99.90;;;;;;6210484;23;20061;-84
2023/05/02 00:21:31;;;;;;;0.10;0.10;;;10.30;99.90;;;;;;6192516;23;20480;-84
2023/05/02 00:23:58;;;;;;;0.10;0.10;;;10.40;99.90;;;;;;6185271;23;20453;-84
2023/05/02 00:26:23;;;;;;;0.20;0.20;;;10.30;99.90;;;;;;6183069;23;20527;-84
2023/05/02 00:28:52;;;;;;;0.20;0.20;;;10.40;99.90;;;;;;6181733;23;20088;-84
2023/05/02 00:31:18;;;;;;;0.10;0.10;;;10.30;99.90;;;;;;6182518;23;20089;-84
2023/05/02 00:33:43;;;;;;;0.15;0.15;;;10.40;99.90;;;;;;6187790;23;20069;-84
2023/05/02 00:36:16;;;;;;;0.15;0.15;;;10.40;99.90;;;;;;6183110;23;20327;-85
2023/05/02 00:38:44;;;;;;;0.10;0.10;;;10.40;99.90;;;;;;6182577;23;20011;-85
2023/05/02 00:41:10;;;;;;;0.20;0.20;;;10.40;99.90;;;;;;6181166;23;20025;-84
2023/05/02 00:43:38;;;;;;;0.10;0.10;;;10.40;99.90;;;;;;6187210;23;20057;-85
2023/05/02 00:46:05;;;;;;;0.10;0.10;;;10.40;99.90;;;;;;6182482;23;20013;-84
2023/05/02 00:48:31;;;;;;;0.20;0.20;;;10.40;99.90;;;;;;6191873;23;20442;-84
2023/05/02 00:50:57;;;;;;;0.13;0.13;;;10.40;99.90;;;;;;6203387;23;20027;-83
2023/05/02 00:53:23;;;;;;;0.20;0.20;;;10.50;99.90;;;;;;6202739;23;20044;-84
2023/05/02 00:55:49;;;;;;;0.20;0.20;;;10.40;99.90;;;;;;6198628;23;20017;-85
2023/05/02 01:01:27;;;;;;;0.17;0.17;;;10.30;99.90;;;;;;6213204;23;20294;-83
2023/05/02 01:08:02;;;;;;;0.20;0.20;;;10.30;99.90;;;;;;6187213;23;20020;-84
2023/05/02 01:10:51;;;;;;;0.13;0.13;;;10.00;99.90;;;;;;6187482;23;20020;-83
2023/05/02 01:13:41;;;;;;;0.10;0.10;;;10.20;99.90;;;;;;6188638;23;20476;-83
2023/05/02 01:16:11;;;;;;;0.13;0.13;;;10.20;99.90;;;;;;6186340;23;20012;-84
2023/05/02 01:21:13;;;;;;;0.20;0.20;;;10.20;99.90;;;;;;6276018;22;20023;-83
2023/05/02 01:27:46;;;;;;;0.13;0.13;;;10.50;99.90;;;;;;6245264;22;20111;-83
2023/05/02 01:30:27;;;;;;;0.20;0.20;;;10.10;99.90;;;;;;6217783;23;20016;-83
2023/05/02 01:33:01;;;;;;;0.10;0.10;;;10.10;99.90;;;;;;6219476;23;20020;-84
2023/05/02 01:36:04;;;;;;;;;;;10.00;99.90;;;;;;6237828;22;20077;-83
2023/05/02 01:38:35;;;;;;;0.20;0.20;;;9.90;99.90;;;;;;6257636;23;19915;-83
2023/05/02 01:41:04;;;;;;;0.10;0.10;;;9.80;99.90;;;;;;6270676;22;20016;-82
2023/05/02 01:43:33;;;;;;;0.10;0.10;;;10.00;99.90;;;;;;6269407;23;20000;-84
2023/05/02 01:46:27;;;;;;;0.20;0.20;;;9.80;99.90;;;;;;6248451;23;20455;-83
2023/05/02 01:49:05;;;;;;;0.10;0.10;;;9.70;99.90;;;;;;6217605;23;20020;-83
2023/05/02 01:52:09;;;;;;;0.20;0.20;;;9.30;99.90;;;;;;6215901;23;20020;-85
2023/05/02 01:54:40;;;;;;;0.13;0.13;;;9.50;99.90;;;;;;6216213;23;20020;-83
2023/05/02 01:57:08;;;;;;;0.10;0.10;;;9.50;99.90;;;;;;6217242;23;20077;-83
2023/05/02 02:03:20;;;;;;;0.10;0.10;;;9.40;99.90;;;;;;6221334;23;20024;-83
2023/05/02 02:05:47;;;;;;;0.20;0.20;;;9.40;99.90;;;;;;6242213;23;20019;-83
2023/05/02 02:08:19;;;;;;;0.10;0.10;;;9.40;99.90;;;;;;6216281;23;20054;-83
2023/05/02 02:11:11;;;;;;;0.20;0.20;;;9.30;99.90;;;;;;6243284;23;20071;-84
2023/05/02 02:16:40;;;;;;;0.20;0.20;;;9.30;99.90;;;;;;6237998;22;19919;-83
2023/05/02 02:19:27;;;;;;;0.20;0.20;;;9.30;99.90;;;;;;6242376;22;20728;-83
2023/05/02 02:22:17;;;;;;;0.20;0.20;;;9.20;99.90;;;;;;6243103;23;20023;-83
2023/05/02 02:25:04;;;;;;;0.20;0.20;;;9.10;99.90;;;;;;6248774;22;20016;-84
2023/05/02 02:27:52;;;;;;;0.20;0.20;;;9.10;99.90;;;;;;6249055;23;20020;-83
2023/05/02 02:30:57;;;;;;;0.10;0.10;;;8.70;99.90;;;;;;6242715;23;20018;-82
2023/05/02 02:33:30;;;;;;;0.10;0.10;;;9.00;99.90;;;;;;6262866;22;20336;-82
2023/05/02 02:40:05;;;;;;;0.20;0.20;;;9.40;99.90;;;;;;6247430;22;20028;-82
2023/05/02 02:43:21;;;;;;;0.20;0.20;;;8.10;99.90;;;;;;6276906;22;20020;-83
2023/05/02 02:46:18;;;;;;;0.20;0.20;;;8.70;99.90;;;;;;6278480;22;20110;-84
2023/05/02 02:48:55;;;;;;;0.20;0.20;;;9.60;99.90;;;;;;6275471;22;20012;-83
2023/05/02 02:52:28;;;;;;;0.10;0.10;;;8.60;99.90;;;;;;6275018;22;20054;-83
2023/05/02 02:55:11;;;;;;;0.20;0.20;;;8.80;99.90;;;;;;6120849;23;20041;-82
2023/05/02 02:58:18;;;;;;;0.20;0.20;;;8.50;99.90;;;;;;6097725;23;20014;-83
2023/05/02 03:00:48;;;;;;;0.10;0.10;;;8.40;99.90;;;;;;6120475;23;20029;-83
2023/05/02 03:03:29;;;;;;;;;;;;;;;;;;;;;
2023/05/02 03:06:02;;;;;;;0.20;0.20;;;8.60;99.90;;;;;;6174004;22;20026;-85
2023/05/02 03:08:41;;;;;;;0.10;0.10;;;8.40;99.90;;;;;;6247597;22;20027;-84
2023/05/02 03:11:22;;;;;;;0.20;0.20;;;8.30;99.90;;;;;;6247288;22;20016;-87
2023/05/02 03:13:48;;;;;;;0.13;0.13;;;7.90;99.90;;;;;;6247585;22;20077;-84
2023/05/02 03:16:42;;;;;;;0.20;0.20;;;8.20;99.90;;;;;;6245329;22;20017;-84
2023/05/02 03:19:08;;;;;;;0.20;0.20;;;8.40;99.90;;;;;;6248900;22;20310;-83
2023/05/02 03:21:43;;;;;;;0.20;0.20;;;8.10;99.90;;;;;;6288379;22;20035;-83
2023/05/02 03:24:08;;;;;;;0.20;0.20;;;8.80;99.90;;;;;;6301062;22;20067;-83
2023/05/02 03:26:37;;;;;;;0.20;0.20;;;8.20;99.90;;;;;;6268011;22;20031;-84
2023/05/02 03:29:12;;;;;;;0.20;0.20;;;8.00;99.90;;;;;;6277672;22;20016;-84
2023/05/02 03:31:37;;;;;;;0.20;0.20;;;8.00;99.90;;;;;;6245991;22;20098;-84
2023/05/02 03:34:03;;;;;;;0.20;0.20;;;7.50;99.90;;;;;;6240390;23;20051;-85
2023/05/02 03:36:30;;;;;;;0.20;0.20;;;8.00;99.90;;;;;;6240236;23;20028;-84
2023/05/02 03:39:14;;;;;;;0.20;0.20;;;8.00;99.90;;;;;;6241700;23;20069;-85
2023/05/02 03:41:41;;;;;;;0.20;0.20;;;8.50;99.90;;;;;;6241366;23;20024;-86
2023/05/02 03:44:06;;;;;;;0.20;0.20;;;8.60;99.90;;;;;;6240540;23;20016;-83
2023/05/02 03:46:32;;;;;;;0.20;0.20;;;7.90;99.90;;;;;;6238889;23;20101;-83
2023/05/02 03:49:04;;;;;;;0.20;0.20;;;7.90;99.90;;;;;;6241690;23;20020;-88
2023/05/02 03:51:29;;;;;;;0.20;0.20;;;7.90;99.90;;;;;;6239623;23;20051;-84
2023/05/02 03:54:00;;;;;;;0.20;0.20;;;7.80;99.90;;;;;;6241565;23;20016;-85
2023/05/02 03:56:26;;;;;;;0.20;0.20;;;7.80;99.90;;;;;;6239697;23;20019;-85
2023/05/02 03:58:52;;;;;;;0.20;0.20;;;8.10;99.90;;;;;;6239766;23;20431;-87
2023/05/02 04:04:04;;;;;;;0.20;0.20;;;7.70;99.90;;;;;;6255149;23;20030;-84
2023/05/02 04:06:42;;;;;;;0.20;0.20;;;8.10;99.90;;;;;;6242868;23;20501;-85
2023/05/02 04:09:38;;;;;;;0.20;0.20;;;9.80;99.90;;;;;;6252221;22;20068;-85
2023/05/02 04:12:15;;;;;;;0.20;0.20;;;7.30;99.90;;;;;;6256223;22;20025;-87
2023/05/02 04:14:40;;;;;;;0.20;0.20;;;7.60;99.90;;;;;;6254527;22;20640;-84
2023/05/02 04:17:06;;;;;;;0.20;0.20;;;7.50;99.90;;;;;;6275066;22;20027;-85
2023/05/02 04:19:33;;;;;;;0.20;0.20;;;7.50;99.90;;;;;;6270659;22;20023;-85
2023/05/02 04:21:59;;;;;;;0.20;0.20;;;7.60;99.90;;;;;;6274030;22;20093;-85
2023/05/02 04:24:27;;;;;;;0.20;0.20;;;7.60;99.90;;;;;;6246006;22;20077;-84
2023/05/02 04:26:53;;;;;;;0.20;0.20;;;7.50;99.90;;;;;;6273569;22;20020;-85
2023/05/02 04:29:19;;;;;;;0.17;0.17;;;7.50;99.90;;;;;;6273188;22;20472;-84
2023/05/02 04:31:48;;;;;;;0.17;0.17;;;8.30;99.90;;;;;;6274132;22;20359;-85
2023/05/02 04:34:13;;;;;;;0.10;0.10;;;7.50;99.90;;;;;;6246394;22;20091;-84
2023/05/02 04:36:39;;;;;;;0.20;0.20;;;7.40;99.90;;;;;;6247327;22;20047;-83
2023/05/02 04:39:06;;;;;;;0.20;0.20;;;7.50;99.90;;;;;;6273979;22;20538;-84
2023/05/02 04:41:33;;;;;;;0.20;0.20;;;7.40;99.90;;;;;;6247082;22;20019;-84
2023/05/02 04:44:04;;;;;;;0.20;0.20;;;7.80;99.90;;;;;;6276388;22;20012;-85
2023/05/02 04:46:32;;;;;;;0.20;0.20;;;7.40;99.90;;;;;;6246921;22;20016;-86
2023/05/02 04:49:10;;;;;;;0.20;0.20;;;7.40;99.90;;;;;;6249415;22;20444;-84
2023/05/02 04:51:36;;;;;;;0.20;0.20;;;7.40;99.90;;;;;;6249635;22;20019;-84
2023/05/02 04:54:09;;;;;;;0.10;0.10;;;7.40;99.90;;;;;;6284282;22;20031;-84
2023/05/02 04:56:50;;;;;;;0.20;0.20;;;7.40;99.90;;;;;;6277563;22;20058;-84
2023/05/02 04:59:38;;;;;;;0.20;0.20;;;7.40;99.90;;;;;;6247882;22;20028;-84
2023/05/02 05:02:51;;;;;;;0.20;0.20;;;7.40;99.90;;;;;;6275543;22;20434;-84
2023/05/02 05:05:16;;;;;;;0.20;0.20;;;7.40;99.90;;;;;;6263624;22;20118;-85
2023/05/02 05:07:45;;;;;;;0.20;0.20;;;7.40;99.90;;;;;;6302593;22;20030;-84
2023/05/02 05:10:11;;;;;;;0.20;0.20;;;7.40;99.90;;;;;;6258649;22;20016;-85
2023/05/02 05:12:40;;;;;;;0.20;0.20;;;7.40;99.90;;;;;;6275165;22;20030;-84
2023/05/02 05:15:06;;;;;;;0.20;0.20;;;7.50;99.90;;;;;;6246897;22;20016;-84
2023/05/02 05:21:17;;;;;;;0.20;0.20;;;7.50;99.90;;;;;;6142089;23;20023;-84
2023/05/02 05:23:52;;;;;;;0.20;0.20;;;6.90;99.90;;;;;;6216936;23;20024;-83
2023/05/02 05:26:22;;;;;;;0.20;0.20;;;7.50;99.90;;;;;;6228367;22;20020;-84
2023/05/02 05:28:51;;;;;;;0.20;0.20;;;7.60;99.90;;;;;;6274061;22;20016;-83
2023/05/02 05:31:17;;;;;;;0.20;0.20;;;7.50;99.90;;;;;;6273570;22;20023;-85
2023/05/02 05:33:43;;;;;;;0.20;0.20;;;7.50;99.90;;;;;;6274884;22;20335;-84
2023/05/02 05:36:25;;;;;;;0.20;0.20;;;7.50;99.90;;;;;;6257985;22;20047;-82
2023/05/02 05:38:51;;;;;;;0.20;0.20;;;7.50;99.90;;;;;;6280267;22;20030;-85
2023/05/02 05:44:56;;;;;;;0.10;0.10;;;7.60;99.90;;;;;;6273963;22;20043;-85
2023/05/02 05:47:37;;;;;;;0.20;0.20;;;7.60;99.90;;;;;;6274296;22;20305;-84
2023/05/02 05:50:03;;;;;;;0.20;0.20;;;7.60;99.90;;;;;;6274684;22;20019;-85
2023/05/02 05:52:54;;;;;;;0.20;0.20;;;8.00;99.90;;;;;;6286747;22;20016;-85
2023/05/02 05:55:29;;;;;;;0.10;0.10;;;6.80;99.90;;;;;;6252346;22;20015;-84
2023/05/02 05:57:54;;;;;;;0.20;0.20;;;7.60;99.90;;;;;;6248011;22;20020;-85
2023/05/02 06:00:37;;;;;;;0.17;0.17;;;7.60;99.90;;;;;;6267373;22;20012;-85
2023/05/02 06:03:06;;;;;;;0.20;0.20;;;7.60;99.90;;;;;;6246888;22;20311;-85
2023/05/02 06:05:41;;;;;;;0.20;0.20;;;7.60;99.90;;;;;;6246808;22;20134;-86
2023/05/02 06:08:06;;;;;;;0.20;0.20;;;7.60;99.90;;;;;;6246168;22;20023;-88
2023/05/02 06:10:41;;;;;;;0.20;0.20;;;7.80;99.90;;;;;;6246185;22;20019;-84
2023/05/02 06:13:16;;;;;;;0.13;0.13;;;7.60;99.90;;;;;;6273472;22;20022;-83
2023/05/02 06:15:41;;;;;;;0.13;0.13;;;8.00;99.90;;;;;;6272508;22;20108;-85
2023/05/02 06:18:07;;;;;;;0.20;0.20;;;7.60;99.90;;;;;;6283608;22;20015;-85
2023/05/02 06:20:39;;;;;;;0.20;0.20;;;7.60;99.90;;;;;;6277611;22;20026;-86
2023/05/02 06:23:21;;;;;;;0.20;0.20;;;7.60;99.90;;;;;;6269343;22;20026;-85
2023/05/02 06:25:53;;;;;;;0.20;0.20;;;6.90;99.90;;;;;;6245226;22;20020;-84
2023/05/02 06:28:25;;;;;;;0.20;0.20;;;7.50;99.90;;;;;;6275057;22;20378;-84
2023/05/02 06:33:28;;;;;;;0.20;0.20;;;7.60;99.50;;;;;;6199111;22;20031;-88
2023/05/02 06:36:22;;;;;;;0.20;0.20;;;7.60;99.70;;;;;;6186942;23;20031;-84
2023/05/02 06:39:03;;;;;;;0.20;0.20;;;7.70;99.50;;;;;;6215121;23;20052;-88
2023/05/02 06:41:35;;;;;;;0.20;0.20;;;7.60;99.10;;;;;;6188545;23;20012;-87
2023/05/02 06:44:47;;;;;;;0.20;0.20;;;7.60;99.10;;;;;;6186695;23;20090;-86
2023/05/02 06:47:15;;;;;;;;;;;7.70;99.20;;;;;;6187134;23;20032;-88
2023/05/02 06:49:41;;;;;;;0.20;0.20;;;7.10;99.20;;;;;;6273909;22;19977;-88
2023/05/02 06:52:10;;;;;;;0.10;0.10;;;7.70;99.50;;;;;;6302287;22;20047;-88
2023/05/02 06:54:48;;;;;;;0.20;0.20;;;8.70;99.60;;;;;;6247214;22;20016;-89
2023/05/02 06:57:23;;;;;;;0.20;0.20;;;7.80;99.50;;;;;;6275527;22;20015;-89
2023/05/02 07:03:03;;;;;;;0.20;0.20;;;7.70;99.30;;;;;;6221461;23;20027;-87
2023/05/02 07:05:46;;;;;;;0.15;0.15;;;7.00;98.50;;;;;;6212231;23;20420;-88
2023/05/02 07:08:29;;;;;;;0.20;0.20;;;8.90;98.80;;;;;;6212800;23;20095;-88
2023/05/02 07:10:58;;;;;;;0.17;0.17;;;7.90;98.80;;;;;;6209809;23;20020;-88
2023/05/02 07:13:36;;;;;;;0.10;0.10;;;8.00;98.90;;;;;;6187234;23;20436;-90
2023/05/02 07:16:14;;;;;;;0.20;0.20;;;8.70;99.00;;;;;;6196629;23;20005;-87
2023/05/02 07:19:07;;;;;;;0.20;0.20;;;8.10;98.40;;;;;;6203620;23;20016;-88
2023/05/02 07:21:48;;;;;;;0.10;0.10;;;8.10;98.50;;;;;;6254727;22;20054;-88
2023/05/02 07:24:23;;;;;;;0.20;0.20;;;8.10;98.70;;;;;;6249696;22;20022;-88
2023/05/02 07:27:10;;;;;;;0.20;0.20;;;8.30;98.70;;;;;;6252413;22;20075;-88
2023/05/02 07:30:14;;;;;;;0.20;0.20;;;8.10;98.30;;;;;;6161159;23;20017;-89
2023/05/02 07:32:40;;;;;;;0.10;0.10;;;7.40;98.30;;;;;;6123100;23;20022;-88
2023/05/02 07:35:11;;;;;;;0.20;0.20;;;8.30;98.60;;;;;;6166058;23;20014;-87
2023/05/02 07:37:58;;;;;;;0.20;0.20;;;8.30;98.80;;;;;;6129472;23;20014;-87
2023/05/02 07:40:25;;;;;;;0.20;0.20;;;8.40;98.90;;;;;;6223901;23;20028;-85
2023/05/02 07:42:50;;;;;;;0.20;0.20;;;8.70;98.80;;;;;;6246262;23;20066;-84
2023/05/02 07:45:19;;;;;;;0.20;0.20;;;8.60;98.80;;;;;;6254100;23;20020;-92
2023/05/02 07:48:07;;;;;;;0.20;0.20;;;8.60;98.50;;;;;;6252822;23;20460;-89
2023/05/02 07:50:51;;;;;;;0.20;0.20;;;8.70;98.50;;;;;;6247481;23;20097;-87
2023/05/02 07:53:17;;;;;;;0.20;0.20;;;9.40;98.80;;;;;;6247047;23;20016;-90
2023/05/02 07:55:49;;;;;;;0.20;0.20;;;9.40;98.60;;;;;;6247152;23;20020;-89
2023/05/02 07:58:20;;;;;;;0.10;0.10;;;9.20;98.60;;;;;;6242986;23;20094;-89
2023/05/02 08:01:01;;;;;;;0.10;0.10;;;9.00;98.70;;;;;;6246170;23;20024;-90
2023/05/02 08:03:49;;;;;;;0.20;0.20;;;9.00;98.10;;;;;;6244123;23;20016;-89
2023/05/02 08:06:24;;;;;;;0.10;0.10;;;9.10;97.80;;;;;;6246609;23;20016;-89
2023/05/02 08:09:11;;;;;;;0.10;0.10;;;9.90;98.10;;;;;;6244813;23;20024;-88
2023/05/02 08:11:39;;;;;;;0.20;0.20;;;8.80;97.90;;;;;;6248661;23;20012;-91
2023/05/02 08:14:15;;;;;;;0.15;0.15;;;9.30;97.90;;;;;;6248249;23;20027;-90
2023/05/02 08:16:52;;;;;;;0.20;0.20;;;9.40;97.80;;;;;;6249075;23;20008;-90
2023/05/02 08:19:24;;;;;;;0.10;0.10;;;9.50;97.80;;;;;;6246952;23;20051;-87
2023/05/02 08:22:02;;;;;;;0.10;0.10;;;9.60;97.40;;;;;;6249341;23;20016;-89
2023/05/02 08:24:38;;;;;;;;;;;;;;;;;;;;;
2023/05/02 08:27:15;;;;;;;0.20;0.20;;;9.60;97.10;;;;;;6268378;22;20051;-89
2023/05/02 08:29:44;;;;;;;0.17;0.17;;;9.60;96.50;;;;;;6254599;23;20012;-88
2023/05/02 08:32:13;;;;;;;0.13;0.13;;;9.70;96.90;;;;;;6268211;22;20027;-89
2023/05/02 08:34:39;;;;;;;0.10;0.10;;;9.70;95.80;;;;;;6273411;22;20005;-88
2023/05/02 08:37:12;;;;;;;0.10;0.10;;;10.00;96.10;;;;;;6251315;23;20108;-88
2023/05/02 08:40:13;;;;;;;0.10;0.10;;;9.80;95.80;;;;;;6251793;22;20081;-81
2023/05/02 08:43:43;;;;;;;0.15;0.15;;;9.80;95.70;;;;;;6201761;23;20031;-89
2023/05/02 08:46:58;;;;;;;0.17;0.17;;;8.70;94.80;;;;;;6217244;23;20043;-89
2023/05/02 08:49:30;;;;;;;0.10;0.10;;;9.20;95.00;;;;;;6190298;23;20373;-87
2023/05/02 08:52:10;;;;;;;0.20;0.20;;;9.30;94.80;;;;;;6191531;23;20067;-85
2023/05/02 08:54:37;;;;;;;0.20;0.20;;;10.30;95.60;;;;;;6210314;23;20021;-88
2023/05/02 09:00:59;;;;;;;0.10;0.10;;;10.00;95.90;;;;;;6218146;23;20294;-92
2023/05/02 09:03:43;;;;;;;0.20;0.20;;;10.20;95.70;;;;;;6176285;23;20024;-86
2023/05/02 09:06:28;;;;;;;0.13;0.13;;;10.20;95.00;;;;;;6217523;23;20020;-87
2023/05/02 09:08:59;;;;;;;0.10;0.10;;;9.60;94.60;;;;;;6196258;23;20048;-90
2023/05/02 09:11:41;;;;;;;0.20;0.20;;;10.10;94.80;;;;;;6227787;23;20013;-88
2023/05/02 09:14:31;;;;;;;0.10;0.10;;;10.10;95.00;;;;;;6222877;23;20031;-87
2023/05/02 09:17:01;;;;;;;0.20;0.20;;;10.00;94.90;;;;;;6224218;23;20020;-89
2023/05/02 09:23:17;;;;;;;0.15;0.15;;;10.20;95.00;;;;;;6219419;23;20020;-91
2023/05/02 09:28:10;;;;;;;0.10;0.10;;;10.20;95.50;;;;;;6215119;22;20025;-87
2023/05/02 09:30:39;;;;;;;0.20;0.20;;;10.10;95.30;;;;;;6190188;23;20024;-91
2023/05/02 09:33:32;;;;;;;0.20;0.20;;;10.10;95.60;;;;;;6189276;23;20024;-94
2023/05/02 09:36:15;;;;;;;0.20;0.20;;;9.50;95.70;;;;;;6215440;23;20019;-86
2023/05/02 09:39:08;;;;;;;0.17;0.17;;;10.70;96.10;;;;;;6215699;23;20451;-86
2023/05/02 09:41:52;;;;;;;0.20;0.20;;;10.10;96.00;;;;;;6215735;23;20009;-87
2023/05/02 09:44:20;;;;;;;0.10;0.10;;;10.20;96.00;;;;;;6215160;23;20516;-87
2023/05/02 09:47:05;;;;;;;0.10;0.10;;;10.30;96.20;;;;;;6215331;23;20036;-91
2023/05/02 09:49:53;;;;;;;0.10;0.10;;;10.50;96.30;;;;;;6190985;23;20012;-90
2023/05/02 09:52:22;;;;;;;0.20;0.20;;;10.50;96.10;;;;;;6235750;23;20012;-91
2023/05/02 09:55:28;;;;;;;0.10;0.10;;;10.30;96.10;;;;;;6218539;23;20013;-89
2023/05/02 09:58:04;;;;;;;0.10;0.10;;;10.70;95.80;;;;;;6220662;22;20059;-89
2023/05/02 10:01:24;;;;;;;0.20;0.20;;;10.60;95.60;;;;;;6215788;23;20023;-87
2023/05/02 10:04:50;;;;;;;0.10;0.10;;;10.50;95.50;;;;;;6220100;23;20016;-85
2023/05/02 10:07:24;;;;;;;0.10;0.10;;;10.50;95.50;;;;;;6201044;23;20469;-88
2023/05/02 10:09:57;;;;;;;0.20;0.20;;;10.50;95.40;;;;;;6190381;23;20445;-89
2023/05/02 10:12:51;;;;;;;0.20;0.20;;;10.50;95.60;;;;;;6187356;23;20024;-87
2023/05/02 10:15:21;;;;;;;0.20;0.20;;;10.20;95.60;;;;;;6192010;23;20024;-87
2023/05/02 10:17:59;;;;;;;0.10;0.10;;;10.60;96.00;;;;;;6235808;23;20068;-88
2023/05/02 10:21:09;;;;;;;0.20;0.20;;;10.80;96.30;;;;;;6117151;23;20022;-88
2023/05/02 10:23:35;;;;;;;0.10;0.10;;;10.90;96.10;;;;;;6124192;23;20558;-89
2023/05/02 10:26:40;;;;;;;0.10;0.10;;;11.00;95.70;;;;;;6174970;23;20113;-87
2023/05/02 10:32:17;;;;;;;0.20;0.20;;;10.90;95.10;;;;;;6220483;23;20020;-90
2023/05/02 10:34:45;;;;;;;0.13;0.13;;;10.90;95.00;;;;;;6203182;23;20018;-89
2023/05/02 10:37:44;;;;;;;0.10;0.10;;;10.90;95.10;;;;;;6188844;23;20059;-87
2023/05/02 10:40:17;;;;;;;0.15;0.15;;;11.00;95.70;;;;;;6183664;22;20042;-86
2023/05/02 10:42:50;;;;;;;0.15;0.15;;;11.10;95.80;;;;;;6154009;23;20021;-89
2023/05/02 10:45:50;;;;;;;0.10;0.10;;;11.20;95.70;;;;;;6152872;23;20350;-87
2023/05/02 10:48:24;;;;;;;0.15;0.15;;;11.20;95.20;;;;;;6199790;22;20617;-88
2023/05/02 10:51:13;;;;;;;0.10;0.10;;;11.20;94.70;;;;;;6284670;22;20185;-91
2023/05/02 10:53:42;;;;;;;0.10;0.10;;;11.00;94.60;;;;;;6252698;22;20011;-93
2023/05/02 10:57:24;;;;;;;0.20;0.20;;;10.90;94.40;;;;;;6276827;22;20026;-90
2023/05/02 11:00:17;;;;;;;0.10;0.10;;;10.50;94.80;;;;;;6274873;22;20020;-90
2023/05/02 11:02:46;;;;;;;0.20;0.20;;;11.00;95.40;;;;;;6274958;22;20027;-90
2023/05/02 11:08:19;;;;;;;0.10;0.10;;;10.60;96.10;;;;;;6218473;22;20051;-89
2023/05/02 11:24:44;;;;;;;0.20;0.20;;;11.50;94.80;;;;;;6237284;22;20032;-91
2023/05/02 11:27:40;;;;;;;0.20;0.20;;;11.50;95.10;;;;;;6246206;23;20106;-90
2023/05/02 11:30:44;;;;;;;0.10;0.10;;;11.50;95.00;;;;;;6200131;23;20019;-92
2023/05/02 11:33:11;;;;;;;0.13;0.13;;;11.40;94.80;;;;;;6220073;23;20020;-88
2023/05/02 11:35:59;;;;;;;0.10;0.10;;;11.50;94.30;;;;;;6219562;23;20024;-88
2023/05/02 11:38:42;;;;;;;0.20;0.20;;;11.50;94.50;;;;;;6249814;23;20024;-91
2023/05/02 11:41:27;;;;;;;;;;;;;;;;;;;;;
2023/05/02 11:44:03;;;;;;;0.10;0.10;;;11.50;94.40;;;;;;6221951;23;20047;-90
2023/05/02 11:46:50;;;;;;;0.10;0.10;;;11.50;94.50;;;;;;6220777;23;20020;-88
2023/05/02 11:49:18;;;;;;;0.10;0.10;;;11.70;94.10;;;;;;6248143;23;20024;-92
2023/05/02 11:51:44;;;;;;;0.10;0.10;;;11.80;93.70;;;;;;6249198;23;20009;-90
2023/05/02 11:54:38;;;;;;;0.10;0.10;;;11.60;93.40;;;;;;6250301;23;20077;-88
2023/05/02 11:57:20;;;;;;;0.20;0.20;;;11.70;93.70;;;;;;6244087;23;20024;-90
2023/05/02 11:59:50;;;;;;;0.20;0.20;;;11.70;94.20;;;;;;6272207;22;20008;-89
2023/05/02 12:02:46;;;;;;;0.20;0.20;;;12.20;94.30;;;;;;6227895;23;20035;-89
2023/05/02 12:05:35;;;;;;;0.10;0.10;;;12.20;94.40;;;;;;6228453;23;20449;-90
2023/05/02 12:08:21;;;;;;;0.10;0.10;;;12.30;93.70;;;;;;6220334;23;20052;-90
2023/05/02 12:10:50;;;;;;;0.10;0.10;;;12.30;92.50;;;;;;6191276;23;20023;-92
2023/05/02 12:13:47;;;;;;;0.10;0.10;;;12.60;91.90;;;;;;6190512;23;20024;-90
2023/05/02 12:16:39;;;;;;;0.10;0.10;;;11.70;91.90;;;;;;6215446;23;20020;-87
2023/05/02 12:19:17;;;;;;;0.13;0.13;;;13.10;91.60;;;;;;6215242;23;20441;-89
2023/05/02 12:21:43;;;;;;;0.10;0.10;;;12.60;92.00;;;;;;6190296;23;20052;-90
2023/05/02 12:24:15;;;;;;;0.10;0.10;;;12.80;92.50;;;;;;6194835;23;20040;-90
2023/05/02 12:27:15;;;;;;;0.20;0.20;;;12.80;91.70;;;;;;6238468;23;20008;-88
2023/05/02 12:29:47;;;;;;;0.10;0.10;;;12.90;92.50;;;;;;6219639;23;20446;-92
2023/05/02 12:32:44;;;;;;;0.10;0.10;;;13.10;91.70;;;;;;6190908;23;20016;-88
2023/05/02 12:35:26;;;;;;;0.10;0.10;;;13.20;91.80;;;;;;6219125;23;20151;-90
2023/05/02 12:40:53;;;;;;;0.10;0.10;;;13.30;92.10;;;;;;6196291;23;20021;-89
2023/05/02 12:43:59;;;;;;;0.20;0.20;;;13.40;91.20;;;;;;6234769;23;20016;-93
2023/05/02 12:47:05;;;;;;;0.13;0.13;;;13.50;91.00;;;;;;6190322;23;20048;-90
2023/05/02 12:50:06;;;;;;;0.10;0.10;;;13.30;90.90;;;;;;6217537;23;20091;-89
2023/05/02 12:53:16;;;;;;;0.10;0.10;;;13.10;91.00;;;;;;6191211;23;20016;-90
2023/05/02 12:55:42;;;;;;;0.15;0.15;;;13.20;91.40;;;;;;6217974;23;20024;-89
2023/05/02 12:58:14;;;;;;;0.20;0.20;;;13.00;91.60;;;;;;6190604;23;20027;-88
2023/05/02 13:01:00;;;;;;;0.10;0.10;;;12.90;91.60;;;;;;6190883;23;20311;-92
2023/05/02 13:03:32;;;;;;;0.10;0.10;;;12.80;91.50;;;;;;6191182;23;20016;-90
2023/05/02 13:05:58;;;;;;;0.10;0.10;;;12.50;91.80;;;;;;6217425;23;20023;-90
2023/05/02 13:08:24;;;;;;;0.20;0.20;;;12.30;91.90;;;;;;6191716;23;20024;-89
2023/05/02 13:10:53;;;;;;;0.13;0.13;;;12.20;91.90;;;;;;6191610;23;20008;-90
2023/05/02 13:13:18;;;;;;;0.20;0.20;;;12.20;91.80;;;;;;6191630;23;20020;-90
2023/05/02 13:16:04;;;;;;;0.10;0.10;;;12.20;92.20;;;;;;6218403;23;20023;-92
2023/05/02 13:18:53;;;;;;;0.20;0.20;;;12.30;92.10;;;;;;6217475;23;20036;-91
2023/05/02 13:23:52;;;;;;;0.20;0.20;;;12.60;93.20;;;;;;6194681;22;20031;-88
2023/05/02 13:26:23;;;;;;;0.10;0.10;;;12.70;92.60;;;;;;6200034;23;20017;-90
2023/05/02 13:29:20;;;;;;;0.10;0.10;;;12.80;92.50;;;;;;6186710;23;20021;-92
2023/05/02 13:32:11;;;;;;;0.20;0.20;;;12.70;92.30;;;;;;6144232;23;1178012;-91
2023/05/02 13:34:40;;;;;;;0.13;0.13;;;12.70;92.60;;;;;;6192510;23;20430;-89
2023/05/02 13:37:06;;;;;;;0.10;0.10;;;12.70;92.80;;;;;;6201737;23;20020;-86
2023/05/02 13:39:33;;;;;;;0.10;0.10;;;12.70;92.60;;;;;;6240913;23;20010;-88
2023/05/02 13:42:36;;;;;;;0.17;0.17;;;12.60;92.40;;;;;;6213297;23;20218;-89
2023/05/02 13:52:06;;;;;;;;;;;12.90;92.00;;;;;;6241997;22;20027;-87
2023/05/02 13:54:32;;;;;;;0.15;0.15;;;12.60;91.10;;;;;;6220636;23;19915;-90
2023/05/02 13:57:19;;;;;;;0.20;0.20;;;12.80;91.20;;;;;;6251154;23;20348;-90
2023/05/02 13:59:51;;;;;;;0.20;0.20;;;12.70;91.30;;;;;;6243005;23;20022;-90
2023/05/02 14:02:29;;;;;;;0.20;0.20;;;13.30;91.00;;;;;;6226430;23;20019;-90
2023/05/02 14:05:01;;;;;;;0.20;0.20;;;12.90;91.20;;;;;;6250569;23;20022;-90
2023/05/02 14:08:04;;;;;;;0.20;0.20;;;13.00;90.90;;;;;;6241712;22;20027;-89
2023/05/02 14:10:45;;;;;;;0.10;0.10;;;13.10;91.60;;;;;;6242243;22;20035;-89
2023/05/02 14:14:14;;;;;;;0.10;0.10;;;13.60;91.30;;;;;;6252152;23;20027;-90
2023/05/02 14:17:40;;;;;;;0.10;0.10;;;13.50;90.80;;;;;;6247077;23;20047;-91
2023/05/02 14:27:06;;;;;;;0.30;0.30;;;12.90;90.20;;;;;;6238583;23;20027;-88
2023/05/02 14:29:47;;;;;;;0.20;0.20;;;12.70;90.80;;;;;;6247151;23;20016;-91
2023/05/02 14:32:22;;;;;;;0.10;0.10;;;12.60;91.20;;;;;;6246834;22;20024;-90
2023/05/02 14:34:56;;;;;;;0.10;0.10;;;12.50;91.10;;;;;;6245006;23;20341;-90
2023/05/02 14:37:38;;;;;;;0.10;0.10;;;12.40;91.50;;;;;;6247304;23;20098;-91
2023/05/02 14:40:47;;;;;;;0.20;0.20;;;12.30;90.90;;;;;;6224595;23;20085;-88
2023/05/02 14:43:13;;;;;;;0.20;0.20;;;11.50;91.00;;;;;;6247254;23;20016;-91
2023/05/02 14:45:57;;;;;;;0.10;0.10;;;12.10;91.20;;;;;;6246519;22;20023;-91
2023/05/02 14:48:35;;;;;;;0.20;0.20;;;12.60;91.10;;;;;;6254331;22;20008;-90
2023/05/02 14:51:14;;;;;;;0.13;0.13;;;12.00;91.10;;;;;;6259171;23;20020;-90
2023/05/02 14:53:42;;;;;;;0.20;0.20;;;11.90;91.20;;;;;;6247044;22;20091;-94
2023/05/02 14:56:17;;;;;;;0.10;0.10;;;11.80;91.30;;;;;;6246987;22;20416;-90
2023/05/02 15:01:45;;;;;;;0.10;0.10;;;11.80;91.00;;;;;;6269722;22;20028;-92
2023/05/02 15:07:46;;;;;;;0.10;0.10;;;11.60;90.80;;;;;;6236066;22;20050;-87
2023/05/02 15:10:12;;;;;;;0.20;0.20;;;11.50;91.00;;;;;;6252988;22;20468;-91
2023/05/02 15:12:37;;;;;;;0.10;0.10;;;11.60;91.30;;;;;;6254251;22;20020;-90
2023/05/02 15:15:13;;;;;;;0.10;0.10;;;11.70;90.90;;;;;;6267764;22;20004;-89
2023/05/02 15:18:10;;;;;;;0.10;0.10;;;11.70;90.80;;;;;;6283753;22;20313;-89
2023/05/02 15:20:36;;;;;;;0.20;0.20;;;11.70;91.00;;;;;;6244864;22;20022;-89
2023/05/02 15:23:06;;;;;;;0.20;0.20;;;11.70;91.10;;;;;;6274109;22;20034;-89
2023/05/02 15:26:14;;;;;;;0.10;0.10;;;11.80;91.50;;;;;;6284747;22;20019;-91
2023/05/02 15:28:46;;;;;;;0.10;0.10;;;10.90;91.00;;;;;;6278323;22;20050;-90